Weather at Dallas Fort Worth International Airport

Public forecast

Using degrees Fahrenheit for public forecast. Weather courtesy of forecast.io.

Current aviation weather report (METAR) for Dallas Fort Worth International Airport

Retrieved 2022/05/23 07:17 UTC (31 minutes ago):

KDFW 230717Z 34005KT 2 1/2SM -DZ BR BKN007 OVC012 16/14 A3013 RMK AO2 P0000 T01610144

Aviation forecast (TAF) for Dallas Fort Worth International Airport

Retrieved 2022/05/23 06:45 UTC (1 hour ago):

TAF KDFW 230542Z 2306/2412 05008KT P6SM OVC015 FM230800 06007KT P6SM OVC008 FM231500 10009KT P6SM OVC014 FM231900 11008KT P6SM BKN040 FM232100 11012KT P6SM BKN050 FM240400 11009KT P6SM VCTS BKN080CB